Spicer, MN (56288)

4:47 AM CST on December 10, 2016 (GMT -0600)
Willmar | | Change Station

Elev 1188 ft 45.15 °N, 95.00 °W | Updated 11 minutes ago

Clear
Clear
-1.9 °F
Feels Like -2 °F
N
0.0
Wind Variable Wind from NNE
Gusts 0.0 mph

Today
High -- | Low -- °F
--% Chance of Precip.
Yesterday
High -- | Low -- °F
Precip. -- in
Pressure 30.49 in
Visibility 10.0 miles
Clouds Clear
Windchill -2 °F
Dew Point -5 °F
Humidity 87%
Rainfall 0.00 in
Snow Depth Not available.
7:48 AM 4:37 PM
Waxing Gibbous, 82% visible
METAR KBDH 101035Z AUTO 00000KT 10SM CLR M19/M21 A3049 RMK AO2
Pressure 30.49 in
Visibility 10.0 miles
Clouds Clear
Windchill -2 °F
Dew Point -5 °F
Humidity 87%
Rainfall 0.00 in
Snow Depth Not available.
7:48 AM 4:37 PM
Waxing Gibbous, 82% visible
METAR KBDH 101035Z AUTO 00000KT 10SM CLR M19/M21 A3049 RMK AO2

10-Day Weather Forecast

Almanac

Astronomy

Dec. 10, 2016 Rise Set
Actual Time
Civil Twilight
Nautical Twilight
Astronomical Twilight
Moon
Length of Visible Light
Length of Day
Tomorrow will be .
, % of the Moon is Illuminated

Today's Extremes

State Highs State Lows

Community

WunderPhotos

Upload Photos

1,956,536 photos uploaded!

WunderBlog® & News

Nearby

Air Quality

  Air Quality AQ Index Pollutant
Not available.

Snow Depth

Station Depth Elevation

Earthquake Activity

City Distance Mag. Time & Date
Minimum magnitude displayed is 2.5.

Coastal Water Temperatures

Place Temperature

Stations

Nearby Weather Stations

Station Location Temp. Windchill Dew Point Humidity Wind Precip. Elev Updated Type
                   

Watches & Warnings

There are currently no watches in effect.